Time;durP1;ratioP1;P1;durP2;ratioP2;P2;SDS_P1;SDS_P2;PMS_P1;PMS_P2;Temp;Humidity;BMP_temperature;BMP_pressure;BME280_temperature;BME280_humidity;BME280_pressure;Samples;Min_cycle;Max_cycle;Signal;HPM_P1;HPM_P2
2022/04/09 00:01:14;;;;;;;3.50;1.70;;;;;;;17.10;37.95;100073.06;5086855;28;20421;-55
2022/04/09 00:03:41;;;;;;;2.50;1.50;;;;;;;16.97;38.15;100071.41;5087125;28;20499;-56
2022/04/09 00:06:09;;;;;;;3.55;1.40;;;;;;;16.93;38.42;100064.88;5086746;28;20418;-57
2022/04/09 00:08:36;;;;;;;5.47;1.75;;;;;;;16.82;38.40;100061.91;5086546;28;20816;-55
2022/04/09 00:15:39;;;;;;;4.77;2.23;;;;;;;16.81;38.43;100057.59;5086255;28;20406;-56
2022/04/09 00:18:06;;;;;;;4.50;1.90;;;;;;;16.87;38.19;100050.56;5086939;28;20417;-55
2022/04/09 00:20:33;;;;;;;5.22;1.80;;;;;;;16.85;38.10;100044.59;5087234;28;20432;-54
2022/04/09 00:23:00;;;;;;;5.03;1.85;;;;;;;16.84;38.19;100045.66;5087146;28;20506;-55
2022/04/09 00:25:27;;;;;;;4.63;1.90;;;;;;;16.89;38.18;100040.44;5086822;28;20418;-55
2022/04/09 00:27:54;;;;;;;5.15;1.90;;;;;;;16.95;37.95;100033.34;5087308;28;20407;-55
2022/04/09 00:30:21;;;;;;;5.75;1.90;;;;;;;16.86;38.32;100042.75;5086663;28;20938;-56
2022/04/09 00:32:50;;;;;;;5.82;1.90;;;;;;;16.79;38.35;100032.91;5086746;28;20445;-55
2022/04/09 00:35:17;;;;;;;4.25;1.80;;;;;;;16.74;38.52;100024.75;5086914;28;20462;-56
2022/04/09 00:37:44;;;;;;;5.88;1.83;;;;;;;16.82;38.31;100021.75;5085955;28;20419;-56
2022/04/09 00:40:12;;;;;;;5.10;1.67;;;;;;;16.70;38.54;100020.09;5086065;28;20416;-55
2022/04/09 00:42:41;;;;;;;5.82;1.88;;;;;;;16.68;38.44;100020.31;5048805;28;20923;-56
2022/04/09 00:45:09;;;;;;;4.43;1.70;;;;;;;16.64;38.76;100019.13;5045669;28;20449;-55
2022/04/09 00:47:37;;;;;;;4.32;2.08;;;;;;;16.57;38.52;100013.06;5046212;28;20495;-56
2022/04/09 00:52:29;;;;;;;3.97;1.70;;;;;;;16.48;38.97;100019.78;5105994;27;20812;-55
2022/04/09 00:54:58;;;;;;;3.63;1.30;;;;;;;16.52;39.28;100020.94;5107340;28;20405;-55
2022/04/09 00:58:03;;;;;;;4.72;1.80;;;;;;;16.54;39.02;100018.84;5127175;27;20402;-55
2022/04/09 01:00:31;;;;;;;4.75;1.60;;;;;;;16.53;39.18;100017.22;5128043;28;20438;-56
2022/04/09 01:02:58;;;;;;;4.38;1.58;;;;;;;16.51;38.82;100021.97;5127744;28;20415;-55
2022/04/09 01:05:26;;;;;;;3.50;1.40;;;;;;;16.48;39.02;100012.56;5127639;28;20413;-55
2022/04/09 01:07:54;;;;;;;6.28;2.10;;;;;;;16.48;38.88;100017.91;5127549;28;20460;-55
2022/04/09 01:10:21;;;;;;;4.30;2.00;;;;;;;16.42;39.22;100018.78;5108808;28;20403;-54
2022/04/09 01:12:48;;;;;;;3.90;1.48;;;;;;;16.44;39.09;100022.09;5127915;27;20471;-55
2022/04/09 01:15:17;;;;;;;3.63;1.30;;;;;;;16.49;38.85;100027.53;5127474;27;20439;-56
2022/04/09 01:17:44;;;;;;;5.22;1.80;;;;;;;16.57;38.75;100027.25;5127296;28;20957;-54
2022/04/09 01:20:18;;;;;;;4.10;1.52;;;;;;;16.60;38.70;100021.44;5127426;28;20861;-54
2022/04/09 01:22:47;;;;;;;4.32;1.40;;;;;;;16.65;38.76;100028.78;5127703;27;20906;-55
2022/04/09 01:25:14;;;;;;;3.77;1.47;;;;;;;16.71;38.53;100030.56;5127577;27;20464;-55
2022/04/09 01:28:17;;;;;;;5.93;1.63;;;;;;;16.74;38.67;100016.72;5086478;28;20402;-54
2022/04/09 01:30:46;;;;;;;4.72;1.50;;;;;;;16.81;38.61;100005.91;5086935;28;20416;-56
2022/04/09 01:33:16;;;;;;;5.35;1.90;;;;;;;16.74;38.48;100011.34;5087186;28;20418;-56
2022/04/09 01:35:43;;;;;;;4.78;1.80;;;;;;;16.70;38.92;100004.84;5087082;28;20417;-56
2022/04/09 01:38:10;;;;;;;5.18;1.80;;;;;;;16.70;38.86;99998.69;5086768;28;20919;-55
2022/04/09 01:40:38;;;;;;;5.57;1.67;;;;;;;16.66;38.88;100003.66;5087043;28;20405;-56
2022/04/09 01:43:05;;;;;;;6.27;2.00;;;;;;;16.61;38.96;100008.88;5086842;28;20448;-56
2022/04/09 01:45:34;;;;;;;4.75;1.65;;;;;;;16.55;39.26;100007.94;5087049;28;20413;-56
2022/04/09 01:48:01;;;;;;;5.45;1.88;;;;;;;16.54;39.56;100006.28;5086971;28;20452;-54
2022/04/09 01:50:29;;;;;;;4.10;1.73;;;;;;;16.59;39.25;100010.97;5086601;28;20418;-56
2022/04/09 01:52:57;;;;;;;5.97;1.90;;;;;;;16.64;39.05;100000.41;5086856;28;20413;-57
2022/04/09 01:55:24;;;;;;;4.35;1.75;;;;;;;16.64;39.25;100011.09;5086837;28;20438;-57
2022/04/09 01:57:51;;;;;;;4.50;1.70;;;;;;;16.53;39.73;100010.03;5086757;28;20468;-56
2022/04/09 02:00:41;;;;;;;5.30;1.88;;;;;;;16.58;39.40;100007.47;5127230;27;20467;-54
2022/04/09 02:03:08;;;;;;;7.50;1.80;;;;;;;16.54;39.55;100005.47;5128081;28;20410;-56
2022/04/09 02:05:35;;;;;;;4.68;1.80;;;;;;;16.42;39.94;100000.91;5127717;28;20443;-55
2022/04/09 02:08:03;;;;;;;4.80;1.73;;;;;;;16.49;39.89;100000.00;5127662;28;20415;-56
2022/04/09 02:10:30;;;;;;;5.35;1.70;;;;;;;16.58;39.47;99994.09;5127658;28;20780;-56
2022/04/09 02:12:57;;;;;;;3.45;1.60;;;;;;;16.59;39.72;100001.06;5127622;28;20795;-56
2022/04/09 02:15:24;;;;;;;3.95;1.50;;;;;;;16.63;39.37;99999.56;5127613;27;20492;-56
2022/04/09 02:17:52;;;;;;;6.30;1.73;;;;;;;16.62;39.78;100002.50;5127496;28;20788;-56
2022/04/09 02:20:19;;;;;;;4.70;2.13;;;;;;;16.69;39.27;99995.19;5127364;28;20916;-56
2022/04/09 02:22:47;;;;;;;5.72;2.20;;;;;;;16.82;39.13;99988.81;5125870;28;20849;-59
2022/04/09 02:25:15;;;;;;;6.45;2.33;;;;;;;16.88;39.36;99993.28;5127325;28;20800;-56
2022/04/09 02:27:43;;;;;;;5.63;2.22;;;;;;;16.95;38.92;99987.84;5127279;28;20407;-55
2022/04/09 02:30:11;;;;;;;6.00;2.10;;;;;;;16.90;39.24;99991.19;5127559;28;20407;-55
2022/04/09 02:32:45;;;;;;;5.15;2.28;;;;;;;16.86;39.36;99995.38;5108465;28;20417;-56
2022/04/09 02:35:14;;;;;;;4.53;1.80;;;;;;;16.91;39.35;99994.69;5127509;27;20441;-56
2022/04/09 02:37:56;;;;;;;4.15;1.90;;;;;;;16.88;39.23;99995.97;5127168;27;20974;-55
2022/04/09 02:40:24;;;;;;;5.25;2.22;;;;;;;16.93;39.39;99993.41;5127681;28;20413;-55
2022/04/09 02:42:51;;;;;;;7.03;3.10;;;;;;;16.96;39.33;99990.28;5127706;28;20411;-55
2022/04/09 02:45:18;;;;;;;5.93;2.40;;;;;;;16.86;39.85;99991.88;5127614;28;20423;-55
2022/04/09 02:47:44;;;;;;;4.63;1.90;;;;;;;16.79;40.08;99978.56;5127899;28;20407;-55
2022/04/09 02:50:12;;;;;;;5.10;1.92;;;;;;;16.83;40.11;99987.78;5127898;28;20422;-54
2022/04/09 02:52:41;;;;;;;6.18;1.88;;;;;;;16.84;40.32;99981.41;5127506;28;20912;-55
2022/04/09 02:55:10;;;;;;;7.30;1.70;;;;;;;16.90;40.21;99985.84;5127502;27;20961;-55
2022/04/09 02:57:38;;;;;;;4.78;1.42;;;;;;;17.04;40.03;99981.09;5127292;27;20458;-55
2022/04/09 03:00:08;;;;;;;6.50;1.83;;;;;;;17.08;40.07;99987.63;5127464;27;20507;-56
2022/04/09 03:02:36;;;;;;;5.13;1.70;;;;;;;17.10;39.97;99982.03;5127300;28;20403;-55
2022/04/09 03:05:04;;;;;;;44.00;39.95;;;;;;;17.14;40.26;99975.16;5127173;28;20520;-54
2022/04/09 03:07:31;;;;;;;17.08;12.52;;;;;;;17.02;40.16;99983.19;5127086;28;20422;-55
2022/04/09 03:09:58;;;;;;;5.05;1.95;;;;;;;17.11;39.90;99975.63;5127551;28;20498;-55
2022/04/09 03:12:27;;;;;;;5.80;2.67;;;;;;;17.05;40.33;99969.34;5127421;28;20445;-55
2022/04/09 03:14:54;;;;;;;6.22;3.17;;;;;;;16.98;40.57;99974.81;5127370;27;20406;-54
2022/04/09 03:17:21;;;;;;;5.87;4.10;;;;;;;16.91;40.59;99960.72;5127185;27;20578;-55
2022/04/09 03:19:48;;;;;;;7.05;3.25;;;;;;;16.90;40.80;99969.78;5125739;28;20407;-55
2022/04/09 03:22:15;;;;;;;7.90;4.57;;;;;;;16.95;40.65;99963.75;5126916;28;20411;-55
2022/04/09 03:27:43;;;;;;;5.28;1.92;;;;;;;17.07;40.61;99948.50;5086258;28;20410;-56
2022/04/09 03:30:11;;;;;;;4.80;2.03;;;;;;;17.06;40.67;99948.75;5086852;28;20472;-55
2022/04/09 03:32:39;;;;;;;7.43;2.42;;;;;;;17.05;40.81;99947.09;5086754;28;20414;-55
2022/04/09 03:35:07;;;;;;;6.30;2.13;;;;;;;17.05;40.83;99941.75;5087068;28;20415;-55
2022/04/09 03:37:35;;;;;;;5.50;2.35;;;;;;;17.14;40.78;99941.19;5087311;28;20414;-55
2022/04/09 03:40:04;;;;;;;7.70;2.95;;;;;;;17.15;40.60;99939.31;5087105;28;20421;-55
2022/04/09 03:42:31;;;;;;;6.55;2.33;;;;;;;17.13;40.74;99942.22;5086706;28;20904;-56
2022/04/09 03:45:00;;;;;;;4.93;2.15;;;;;;;17.04;40.96;99946.28;5086653;28;20907;-56
2022/04/09 03:47:27;;;;;;;5.75;3.13;;;;;;;16.95;41.36;99936.97;5086929;28;20426;-55
2022/04/09 03:49:54;;;;;;;6.57;3.45;;;;;;;16.92;41.52;99932.06;5086608;28;20410;-56
2022/04/09 03:52:21;;;;;;;6.35;2.80;;;;;;;16.90;41.66;99937.66;5086826;28;20446;-56
2022/04/09 03:54:48;;;;;;;8.88;3.95;;;;;;;17.00;41.47;99937.91;5086765;28;20410;-55
2022/04/09 03:57:15;;;;;;;7.18;2.60;;;;;;;16.96;41.43;99936.75;5086495;28;20414;-56
2022/04/09 03:59:43;;;;;;;5.55;2.30;;;;;;;16.99;41.34;99924.75;5086731;28;20419;-55
2022/04/09 04:02:12;;;;;;;7.53;2.55;;;;;;;17.15;41.03;99931.28;5086303;28;20452;-56
2022/04/09 04:04:39;;;;;;;6.35;2.40;;;;;;;17.15;41.27;99915.22;5086335;28;20398;-55
2022/04/09 04:07:06;;;;;;;8.07;3.50;;;;;;;17.28;40.83;99922.19;5086177;28;20957;-56
2022/04/09 04:09:33;;;;;;;7.68;3.92;;;;;;;17.56;40.29;99914.25;5086523;28;20478;-55
2022/04/09 04:12:00;;;;;;;7.55;3.70;;;;;;;17.85;39.73;99913.50;5046642;28;20416;-55
2022/04/09 04:14:28;;;;;;;6.45;2.05;;;;;;;17.90;39.61;99914.44;5045902;28;20424;-55
2022/04/09 04:16:55;;;;;;;6.55;2.13;;;;;;;18.43;38.63;99912.44;5059174;28;20416;-55
2022/04/09 04:19:24;;;;;;;6.90;3.38;;;;;;;18.93;37.76;99916.28;5065274;28;20440;-55
2022/04/09 04:21:51;;;;;;;5.93;2.60;;;;;;;19.55;36.37;99911.75;5045909;28;20413;-55
2022/04/09 04:24:18;;;;;;;6.70;2.22;;;;;;;20.06;35.67;99912.41;5045783;28;20414;-55
2022/04/09 04:26:45;;;;;;;7.78;2.80;;;;;;;20.75;34.55;99906.34;5057998;28;20898;-55
2022/04/09 04:29:12;;;;;;;13.10;2.97;;;;;;;21.33;33.95;99898.38;5065707;28;20418;-55
2022/04/09 04:31:39;;;;;;;8.98;2.90;;;;;;;21.91;32.74;99897.59;5065813;28;20415;-55
2022/04/09 04:34:06;;;;;;;9.00;6.30;;;;;;;22.14;32.22;99893.59;5069925;28;20438;-56
2022/04/09 04:36:34;;;;;;;6.90;3.28;;;;;;;22.89;30.91;99893.13;5084346;28;20412;-55
2022/04/09 04:39:01;;;;;;;10.30;4.03;;;;;;;23.19;30.61;99903.13;5070522;28;20461;-56
2022/04/09 04:41:28;;;;;;;8.68;2.70;;;;;;;23.93;29.56;99887.19;5069301;28;20469;-56
2022/04/09 04:43:55;;;;;;;9.10;3.40;;;;;;;24.15;29.15;99888.69;5068137;28;20407;-56
2022/04/09 04:46:22;;;;;;;6.38;2.58;;;;;;;24.59;28.65;99887.84;5070985;28;20524;-57
2022/04/09 04:48:49;;;;;;;8.70;3.17;;;;;;;25.12;27.50;99890.59;5069515;28;20431;-55
2022/04/09 04:51:16;;;;;;;7.72;2.80;;;;;;;25.26;27.36;99893.44;5069454;28;20544;-56
2022/04/09 04:53:45;;;;;;;7.30;2.43;;;;;;;25.48;27.30;99887.53;5066492;28;20447;-56
2022/04/09 04:56:13;;;;;;;4.20;2.30;;;;;;;26.02;26.53;99876.53;5069178;28;20411;-57
2022/04/09 04:58:40;;;;;;;7.60;2.80;;;;;;;26.11;26.30;99877.50;5067851;28;21003;-57
2022/04/09 05:01:07;;;;;;;5.75;2.50;;;;;;;26.28;26.11;99880.47;5068033;28;20966;-55
2022/04/09 05:03:37;;;;;;;6.88;2.60;;;;;;;26.90;25.33;99879.47;5069283;28;20418;-57
2022/04/09 05:06:04;;;;;;;8.60;3.80;;;;;;;27.57;24.11;99879.03;5069609;28;20430;-56
2022/04/09 05:08:31;;;;;;;5.63;2.30;;;;;;;27.73;23.78;99875.97;5069381;28;20928;-56
2022/04/09 05:11:00;;;;;;;5.05;2.78;;;;;;;27.90;24.13;99878.91;5069662;28;20407;-56
2022/04/09 05:13:27;;;;;;;8.20;2.90;;;;;;;28.06;23.64;99873.13;5070427;28;20421;-56
2022/04/09 05:15:54;;;;;;;7.85;3.42;;;;;;;28.66;22.90;99863.78;5071385;28;20418;-56
2022/04/09 05:18:21;;;;;;;5.30;2.40;;;;;;;28.60;22.96;99866.66;5071376;28;20850;-56
2022/04/09 05:20:49;;;;;;;6.72;2.25;;;;;;;28.66;22.92;99867.31;5071379;28;20450;-56
2022/04/09 05:23:16;;;;;;;8.25;3.10;;;;;;;29.43;22.05;99862.53;5071133;28;20445;-55
2022/04/09 05:25:43;;;;;;;9.13;3.45;;;;;;;29.76;21.59;99862.13;5071447;28;20496;-56
2022/04/09 05:28:11;;;;;;;12.57;5.15;;;;;;;30.41;20.90;99856.84;5071380;28;20426;-57
2022/04/09 05:30:38;;;;;;;7.07;2.75;;;;;;;30.90;20.13;99851.09;5071135;28;20411;-56
2022/04/09 05:33:05;;;;;;;9.35;3.45;;;;;;;31.43;19.26;99847.00;5071167;28;20419;-56
2022/04/09 05:35:32;;;;;;;8.20;2.70;;;;;;;33.18;17.42;99853.66;5071328;28;20410;-57
2022/04/09 05:37:59;;;;;;;7.70;2.30;;;;;;;34.53;16.38;99849.75;5071107;28;20476;-56
2022/04/09 05:40:26;;;;;;;7.97;2.58;;;;;;;35.57;15.25;99846.78;5071217;28;20415;-56
2022/04/09 05:42:53;;;;;;;7.00;2.07;;;;;;;33.29;17.29;99841.84;5070919;28;20411;-56
2022/04/09 05:45:22;;;;;;;7.32;1.90;;;;;;;33.68;16.86;99838.75;5071042;28;20497;-56
2022/04/09 05:47:49;;;;;;;6.82;2.10;;;;;;;34.84;15.84;99835.22;5071106;28;20462;-56
2022/04/09 05:50:17;;;;;;;6.68;2.08;;;;;;;36.59;14.59;99839.38;5069699;28;20954;-56
2022/04/09 05:52:44;;;;;;;6.85;2.00;;;;;;;38.40;13.04;99831.25;5070961;28;20411;-56
2022/04/09 05:55:11;;;;;;;7.70;2.30;;;;;;;39.56;12.15;99816.31;5070937;28;20411;-57
2022/04/09 05:57:39;;;;;;;4.30;1.80;;;;;;;39.42;12.05;99832.84;5070565;28;20419;-57
2022/04/09 06:00:09;;;;;;;5.40;1.90;;;;;;;39.67;11.88;99822.72;5070563;28;20415;-56
2022/04/09 06:02:39;;;;;;;5.73;1.80;;;;;;;40.81;10.64;99818.63;5070756;28;20450;-57
2022/04/09 06:05:07;;;;;;;5.53;1.90;;;;;;;41.28;10.63;99815.78;5070634;28;20411;-57
2022/04/09 06:07:34;;;;;;;8.27;2.38;;;;;;;41.67;10.02;99811.28;5065320;28;20442;-57
2022/04/09 06:10:20;;;;;;;5.03;2.15;;;;;;;41.15;10.90;99820.16;5058865;28;20855;-58
2022/04/09 06:12:47;;;;;;;5.30;2.40;;;;;;;41.48;10.17;99810.56;5050411;28;20408;-57
2022/04/09 06:15:14;;;;;;;7.22;2.10;;;;;;;41.48;10.16;99795.88;5050474;28;20423;-59
2022/04/09 06:17:43;;;;;;;7.38;2.33;;;;;;;42.18;10.04;99782.78;5053026;28;20914;-57
2022/04/09 06:20:11;;;;;;;7.93;2.13;;;;;;;42.07;9.97;99790.44;5050516;28;20404;-57
2022/04/09 06:22:38;;;;;;;5.68;2.08;;;;;;;42.37;9.36;99789.81;5049794;28;20800;-58
2022/04/09 06:25:06;;;;;;;5.65;2.08;;;;;;;36.27;13.42;99810.03;5054179;28;20812;-50
2022/04/09 06:27:35;;;;;;;7.32;2.00;;;;;;;31.71;17.42;99810.88;5059858;28;20420;-48
2022/04/09 06:30:05;;;;;;;6.68;2.00;;;;;;;30.36;18.91;99803.16;5063176;28;20437;-51
2022/04/09 06:32:31;;;;;;;7.68;2.25;;;;;;;29.35;20.16;99804.06;5065465;28;20989;-50
2022/04/09 06:35:00;;;;;;;7.57;2.00;;;;;;;28.73;20.40;99793.25;5063361;28;20503;-49
2022/04/09 06:37:27;;;;;;;8.93;3.03;;;;;;;28.19;21.52;99791.31;5066622;28;20940;-49
2022/04/09 06:39:55;;;;;;;8.52;2.22;;;;;;;27.82;22.08;99792.44;5067229;28;20415;-48
2022/04/09 06:42:22;;;;;;;7.43;2.00;;;;;;;27.24;22.24;99799.41;5065442;28;20820;-49
2022/04/09 06:44:49;;;;;;;9.38;2.10;;;;;;;27.57;22.21;99791.13;5063239;28;20417;-48
2022/04/09 06:47:16;;;;;;;6.57;1.88;;;;;;;27.37;22.07;99795.06;5064947;28;20411;-48
2022/04/09 06:49:43;;;;;;;8.82;1.77;;;;;;;27.02;22.72;99798.19;5066545;28;20990;-49
2022/04/09 06:52:11;;;;;;;5.57;1.67;;;;;;;26.48;23.45;99794.28;5055708;28;20412;-48
2022/04/09 06:54:38;;;;;;;6.57;1.70;;;;;;;26.95;22.85;99802.44;5049723;28;21456;-49
2022/04/09 06:57:05;;;;;;;5.47;2.05;;;;;;;27.08;22.69;99802.44;5049870;28;20554;-49
2022/04/09 06:59:32;;;;;;;7.05;2.20;;;;;;;27.39;22.28;99796.41;5057218;28;20484;-49
2022/04/09 07:01:59;;;;;;;3.97;1.60;;;;;;;27.36;22.66;99807.09;5055192;28;20494;-49
2022/04/09 07:04:26;;;;;;;5.03;1.80;;;;;;;27.01;22.72;99798.50;5062398;28;20470;-49
2022/04/09 07:06:53;;;;;;;5.82;1.50;;;;;;;27.08;22.88;99799.72;5064544;28;20418;-48
2022/04/09 07:09:21;;;;;;;4.20;1.50;;;;;;;27.14;22.51;99795.00;5064864;28;20915;-48
2022/04/09 07:11:48;;;;;;;6.57;1.80;;;;;;;27.41;22.68;99807.00;5065785;28;20777;-50
2022/04/09 07:14:16;;;;;;;6.17;1.70;;;;;;;27.50;22.40;99790.75;5062818;28;20419;-50
2022/04/09 07:16:44;;;;;;;7.20;1.80;;;;;;;28.07;21.66;99776.66;5063702;28;20409;-51
2022/04/09 07:19:11;;;;;;;4.90;1.60;;;;;;;30.02;19.27;99777.44;5064130;28;20411;-48
2022/04/09 07:21:38;;;;;;;5.55;1.67;;;;;;;30.59;18.76;99778.28;5063898;28;20415;-49
2022/04/09 07:24:06;;;;;;;6.28;2.00;;;;;;;31.34;18.06;99791.47;5063791;28;20471;-51
2022/04/09 07:26:34;;;;;;;8.13;2.00;;;;;;;31.00;18.46;99794.06;5064214;28;20425;-49
2022/04/09 07:29:01;;;;;;;7.45;1.65;;;;;;;30.01;19.05;99780.50;5064804;28;20501;-50
2022/04/09 07:31:28;;;;;;;6.67;1.90;;;;;;;28.95;20.02;99784.19;5062969;28;20444;-52
2022/04/09 07:33:55;;;;;;;7.15;1.90;;;;;;;30.40;18.86;99804.09;5065891;28;20415;-50
2022/04/09 07:36:22;;;;;;;7.85;2.13;;;;;;;30.39;18.84;99794.28;5051953;28;20419;-49
2022/04/09 07:38:49;;;;;;;6.17;1.83;;;;;;;30.38;18.65;99789.97;5061413;28;20441;-49
2022/04/09 07:41:16;;;;;;;6.50;1.70;;;;;;;31.71;17.83;99787.06;5068466;28;20411;-49
2022/04/09 07:43:44;;;;;;;3.70;1.75;;;;;;;31.71;17.65;99792.53;5068297;28;20823;-51
2022/04/09 07:46:11;;;;;;;5.80;2.00;;;;;;;29.79;19.43;99779.56;5068775;28;20411;-49
2022/04/09 07:48:38;;;;;;;8.67;2.97;;;;;;;27.82;21.52;99784.28;5064934;28;20414;-52
2022/04/09 07:51:05;;;;;;;8.02;3.22;;;;;;;26.87;22.53;99798.53;5049168;28;20899;-50
2022/04/09 07:53:32;;;;;;;6.57;2.30;;;;;;;26.48;23.19;99802.44;5048724;28;20451;-56
2022/04/09 07:55:59;;;;;;;7.22;2.75;;;;;;;26.36;23.55;99785.81;5049062;28;20416;-51
2022/04/09 07:58:27;;;;;;;6.20;3.40;;;;;;;25.81;24.33;99797.25;5049058;28;20428;-50
2022/04/09 08:00:55;;;;;;;5.75;2.28;;;;;;;25.63;24.31;99796.97;5048906;28;20413;-51
2022/04/09 08:03:23;;;;;;;6.80;2.60;;;;;;;25.45;24.50;99800.47;5047793;28;20408;-50
2022/04/09 08:05:50;;;;;;;8.20;1.80;;;;;;;25.33;24.50;99785.41;5047560;28;20413;-51
2022/04/09 08:08:16;;;;;;;6.10;2.20;;;;;;;25.18;24.67;99786.38;5048809;28;20419;-49
2022/04/09 08:10:43;;;;;;;7.13;2.20;;;;;;;24.99;24.92;99797.19;5047871;28;20488;-53
2022/04/09 08:13:10;;;;;;;6.55;3.10;;;;;;;25.08;25.04;99793.81;5048598;28;20517;-50
2022/04/09 08:15:39;;;;;;;6.50;1.83;;;;;;;25.13;24.97;99799.19;5050663;28;20447;-49
2022/04/09 08:18:09;;;;;;;6.53;2.45;;;;;;;24.93;25.05;99794.81;5051152;28;20965;-50
2022/04/09 08:20:37;;;;;;;6.22;1.70;;;;;;;24.77;25.51;99794.16;5052123;28;20435;-51
2022/04/09 08:23:04;;;;;;;7.17;1.67;;;;;;;24.89;25.57;99789.16;5050459;28;20466;-51
2022/04/09 08:25:31;;;;;;;5.50;2.00;;;;;;;24.93;25.46;99790.19;5050137;28;20419;-52
2022/04/09 08:28:00;;;;;;;5.40;2.20;;;;;;;24.92;25.17;99791.31;5050202;28;20427;-50
2022/04/09 08:30:27;;;;;;;6.53;2.05;;;;;;;24.82;25.26;99783.28;5051024;28;20417;-51
2022/04/09 08:32:55;;;;;;;7.03;1.95;;;;;;;24.72;25.45;99797.75;5051505;28;20802;-49
2022/04/09 08:35:24;;;;;;;8.63;1.95;;;;;;;24.81;25.52;99787.06;5051701;28;20421;-51
2022/04/09 08:37:54;;;;;;;7.28;2.10;;;;;;;24.97;25.48;99790.44;5052180;28;20439;-50
2022/04/09 08:40:22;;;;;;;5.55;1.80;;;;;;;24.93;25.49;99784.78;5052461;28;20417;-49
2022/04/09 08:42:49;;;;;;;6.13;1.80;;;;;;;24.82;25.31;99793.31;5052686;28;20438;-50
2022/04/09 08:45:16;;;;;;;6.57;2.00;;;;;;;24.91;25.39;99784.25;5052714;28;20413;-49
2022/04/09 08:47:45;;;;;;;5.15;1.70;;;;;;;24.85;25.42;99776.47;5052403;28;20506;-48
2022/04/09 08:50:13;;;;;;;7.38;2.00;;;;;;;25.03;25.13;99793.88;5052226;28;20421;-49
2022/04/09 08:52:44;;;;;;;5.65;1.50;;;;;;;25.04;25.24;99796.31;5052233;28;20412;-49
2022/04/09 08:55:13;;;;;;;5.95;1.80;;;;;;;24.84;25.29;99794.63;5052002;28;20503;-49
2022/04/09 08:57:41;;;;;;;5.22;1.92;;;;;;;24.98;25.44;99794.78;5051688;28;20470;-50
2022/04/09 09:00:13;;;;;;;7.80;1.70;;;;;;;24.78;25.23;99783.06;5051759;28;20907;-48
2022/04/09 09:02:49;;;;;;;5.15;1.70;;;;;;;24.86;25.08;99775.38;5051714;28;20411;-49
2022/04/09 09:05:31;;;;;;;4.25;1.50;;;;;;;24.78;25.09;99776.81;5051685;28;20413;-50
2022/04/09 09:07:59;;;;;;;6.18;1.55;;;;;;;24.78;24.94;99783.06;5051690;28;20415;-50
2022/04/09 09:10:27;;;;;;;8.70;1.80;;;;;;;24.71;24.96;99779.88;5051646;28;20846;-52
2022/04/09 09:13:04;;;;;;;6.32;1.60;;;;;;;24.83;25.02;99773.25;5052118;28;20453;-53
2022/04/09 09:15:31;;;;;;;6.30;2.20;;;;;;;24.91;24.90;99778.84;5051740;28;20482;-54
2022/04/09 09:17:59;;;;;;;6.20;1.95;;;;;;;24.90;24.94;99779.13;5051272;28;20952;-52
2022/04/09 09:20:26;;;;;;;6.00;1.63;;;;;;;24.92;24.99;99779.63;5051427;28;20914;-50
2022/04/09 09:22:55;;;;;;;5.45;2.10;;;;;;;25.05;24.67;99792.53;5051315;28;20786;-50
2022/04/09 09:25:23;;;;;;;4.93;1.63;;;;;;;24.88;24.86;99775.91;5051073;28;20952;-52
2022/04/09 09:27:58;;;;;;;5.00;1.60;;;;;;;24.97;24.71;99787.72;5051620;28;20415;-50
2022/04/09 09:30:25;;;;;;;7.57;2.05;;;;;;;25.15;24.68;99792.38;5051147;28;20416;-51
2022/04/09 09:33:08;;;;;;;5.63;1.85;;;;;;;25.10;24.75;99786.22;5051186;28;20930;-51
2022/04/09 09:35:49;;;;;;;8.68;2.13;;;;;;;25.16;24.80;99779.66;5051106;28;20404;-50
2022/04/09 09:38:24;;;;;;;4.40;1.70;;;;;;;25.02;24.56;99776.81;5051290;28;20428;-51
2022/04/09 09:40:52;;;;;;;4.95;1.60;;;;;;;24.93;24.49;99789.41;5051055;28;20427;-51
2022/04/09 09:43:21;;;;;;;6.15;1.80;;;;;;;24.84;24.89;99778.38;5050986;28;20944;-50
2022/04/09 09:45:49;;;;;;;4.28;1.50;;;;;;;24.87;24.92;99777.00;5051185;28;20418;-48
2022/04/09 09:48:20;;;;;;;4.20;1.50;;;;;;;24.80;24.95;99780.84;5051352;28;20452;-49
2022/04/09 09:50:48;;;;;;;5.18;1.60;;;;;;;24.78;24.83;99777.63;5050786;28;20470;-50
2022/04/09 09:53:15;;;;;;;4.55;1.50;;;;;;;24.79;24.68;99778.44;5050822;28;20790;-51
2022/04/09 09:55:43;;;;;;;4.93;1.55;;;;;;;25.15;24.50;99769.88;5050723;28;20798;-52
2022/04/09 09:58:16;;;;;;;3.70;1.50;;;;;;;25.11;24.28;99783.22;5050913;28;20435;-49
2022/04/09 10:00:43;;;;;;;4.32;1.40;;;;;;;25.12;24.06;99768.56;5050743;28;20854;-52
2022/04/09 10:03:13;;;;;;;4.28;1.55;;;;;;;25.07;24.26;99765.91;5050620;28;20423;-49
2022/04/09 10:05:40;;;;;;;10.75;2.30;;;;;;;25.19;24.07;99773.63;5050494;28;20764;-49
2022/04/09 10:08:08;;;;;;;6.25;1.50;;;;;;;25.29;23.98;99761.88;5050680;28;20797;-49
2022/04/09 10:10:37;;;;;;;4.03;1.70;;;;;;;25.37;23.75;99763.91;5050848;28;20466;-50
2022/04/09 10:13:05;;;;;;;5.50;1.50;;;;;;;25.34;23.59;99767.25;5050356;28;20417;-50
2022/04/09 10:15:34;;;;;;;6.18;1.98;;;;;;;25.45;23.53;99754.34;5050402;28;20946;-51
2022/04/09 10:18:02;;;;;;;4.85;1.92;;;;;;;25.71;23.47;99752.88;5050172;28;20433;-50
2022/04/09 10:20:30;;;;;;;6.30;1.70;;;;;;;25.83;23.57;99755.13;5016016;28;20409;-51
2022/04/09 10:22:59;;;;;;;6.25;1.77;;;;;;;25.79;23.63;99753.31;5050514;28;20498;-51
2022/04/09 10:25:29;;;;;;;4.25;1.40;;;;;;;25.68;23.40;99745.31;5050272;28;20412;-50
2022/04/09 10:28:01;;;;;;;3.63;1.50;;;;;;;25.78;23.17;99757.91;5050039;28;20448;-50
2022/04/09 10:30:29;;;;;;;5.15;1.40;;;;;;;25.86;23.09;99745.59;5050279;28;20786;-51
2022/04/09 10:32:59;;;;;;;2.88;1.52;;;;;;;26.04;22.88;99750.22;5050063;28;20419;-51
2022/04/09 10:35:32;;;;;;;5.10;1.70;;;;;;;26.28;22.44;99741.91;5049830;28;20397;-50
2022/04/09 10:38:22;;;;;;;2.90;1.30;;;;;;;25.87;23.05;99741.78;5050207;28;20454;-51
2022/04/09 10:41:28;;;;;;;4.15;1.70;;;;;;;25.92;23.10;99726.19;5050224;28;20420;-51
2022/04/09 10:43:59;;;;;;;4.15;1.35;;;;;;;26.01;22.67;99733.72;5038449;28;20922;-51
2022/04/09 10:46:34;;;;;;;3.93;1.47;;;;;;;25.91;22.75;99726.50;5049845;28;20413;-50
2022/04/09 10:52:06;;;;;;;5.18;1.45;;;;;;;25.99;22.50;99722.34;5086250;28;20406;-50
2022/04/09 10:54:33;;;;;;;4.53;1.37;;;;;;;25.83;22.83;99725.25;5086879;28;20950;-50
2022/04/09 10:57:22;;;;;;;6.15;1.52;;;;;;;25.82;22.88;99733.69;5087191;28;20448;-50
2022/04/09 10:59:57;;;;;;;4.45;1.75;;;;;;;25.67;23.16;99729.31;5087405;28;20458;-50
2022/04/09 11:02:25;;;;;;;5.63;1.80;;;;;;;25.84;23.06;99731.50;5087090;28;20418;-49
2022/04/09 11:04:52;;;;;;;4.32;1.60;;;;;;;25.79;23.33;99732.41;5087058;28;20414;-51
2022/04/09 11:07:21;;;;;;;4.93;1.50;;;;;;;25.62;22.95;99718.53;5086711;28;20410;-51
2022/04/09 11:09:51;;;;;;;3.53;1.50;;;;;;;25.48;23.08;99730.16;5086925;28;20414;-49
2022/04/09 11:12:20;;;;;;;3.55;1.42;;;;;;;25.50;22.90;99725.22;5086934;28;20416;-49
2022/04/09 11:14:50;;;;;;;4.25;1.73;;;;;;;25.44;23.05;99720.97;5086886;28;20436;-49
2022/04/09 11:17:23;;;;;;;4.50;1.40;;;;;;;25.48;23.35;99735.56;5086821;28;20406;-52
2022/04/09 11:19:50;;;;;;;5.53;1.58;;;;;;;25.44;23.21;99728.31;5086454;28;20419;-50
2022/04/09 11:22:17;;;;;;;6.70;1.73;;;;;;;25.44;23.32;99729.09;5086452;28;20417;-49
2022/04/09 11:24:46;;;;;;;5.32;1.60;;;;;;;25.41;23.37;99718.03;5086657;28;20422;-50
2022/04/09 11:27:13;;;;;;;3.90;1.30;;;;;;;25.32;23.29;99726.84;5086608;28;20406;-49
2022/04/09 11:29:42;;;;;;;4.03;1.40;;;;;;;25.31;23.07;99719.00;5086286;28;20446;-49
2022/04/09 11:32:19;;;;;;;5.80;1.55;;;;;;;25.30;23.22;99718.19;5086222;28;20446;-50
2022/04/09 11:34:54;;;;;;;4.28;1.50;;;;;;;25.29;23.59;99726.63;5086133;28;20923;-50
2022/04/09 11:37:21;;;;;;;4.35;1.38;;;;;;;25.37;23.54;99731.38;5086520;28;20410;-51
2022/04/09 11:39:51;;;;;;;5.30;1.70;;;;;;;25.26;23.31;99725.28;5086096;28;20499;-51
2022/04/09 11:42:19;;;;;;;4.03;1.40;;;;;;;25.31;23.29;99738.78;5086091;28;20511;-49
2022/04/09 11:44:46;;;;;;;8.13;1.63;;;;;;;25.20;23.58;99723.72;5086361;28;20442;-50
2022/04/09 11:47:16;;;;;;;5.10;1.50;;;;;;;25.11;23.58;99728.97;5086303;28;20421;-49
2022/04/09 11:49:44;;;;;;;5.07;1.67;;;;;;;25.34;23.39;99727.34;5088469;28;20426;-49
2022/04/09 11:52:12;;;;;;;3.47;1.63;;;;;;;25.36;23.40;99725.16;5106136;28;20419;-50